sensor_id;sensor_type;location;lat;lon;timestamp;P1;durP1;ratioP1;P2;durP2;ratioP2
70150;SDS011;57517;43.562;19.540;2022-11-15T00:02:10;93.28;;;72.47;;
70150;SDS011;57517;43.562;19.540;2022-11-15T00:04:36;90.93;;;70.63;;
70150;SDS011;57517;43.562;19.540;2022-11-15T00:07:01;93.97;;;72.75;;
70150;SDS011;57517;43.562;19.540;2022-11-15T00:09:27;98.50;;;74.45;;
70150;SDS011;57517;43.562;19.540;2022-11-15T00:11:53;95.78;;;73.55;;
70150;SDS011;57517;43.562;19.540;2022-11-15T00:14:19;96.22;;;75.30;;
70150;SDS011;57517;43.562;19.540;2022-11-15T00:16:45;98.82;;;76.75;;
70150;SDS011;57517;43.562;19.540;2022-11-15T00:19:11;100.32;;;78.78;;
70150;SDS011;57517;43.562;19.540;2022-11-15T00:21:36;107.20;;;79.82;;
70150;SDS011;57517;43.562;19.540;2022-11-15T00:24:02;103.13;;;82.32;;
70150;SDS011;57517;43.562;19.540;2022-11-15T00:26:28;103.70;;;79.65;;
70150;SDS011;57517;43.562;19.540;2022-11-15T00:28:54;103.53;;;79.90;;
70150;SDS011;57517;43.562;19.540;2022-11-15T00:31:20;97.75;;;75.47;;
70150;SDS011;57517;43.562;19.540;2022-11-15T00:33:45;97.95;;;77.20;;
70150;SDS011;57517;43.562;19.540;2022-11-15T00:36:11;99.00;;;76.45;;
70150;SDS011;57517;43.562;19.540;2022-11-15T00:38:38;87.00;;;67.45;;
70150;SDS011;57517;43.562;19.540;2022-11-15T00:41:05;92.47;;;68.57;;
70150;SDS011;57517;43.562;19.540;2022-11-15T00:43:32;96.10;;;75.05;;
70150;SDS011;57517;43.562;19.540;2022-11-15T00:45:59;92.20;;;72.55;;
70150;SDS011;57517;43.562;19.540;2022-11-15T00:48:25;93.53;;;70.30;;
70150;SDS011;57517;43.562;19.540;2022-11-15T00:50:50;95.45;;;73.38;;
70150;SDS011;57517;43.562;19.540;2022-11-15T00:53:16;88.90;;;72.68;;
70150;SDS011;57517;43.562;19.540;2022-11-15T00:55:42;97.75;;;78.95;;
70150;SDS011;57517;43.562;19.540;2022-11-15T00:58:08;101.53;;;78.82;;
70150;SDS011;57517;43.562;19.540;2022-11-15T01:00:34;105.40;;;79.53;;
70150;SDS011;57517;43.562;19.540;2022-11-15T01:03:00;102.30;;;81.50;;
70150;SDS011;57517;43.562;19.540;2022-11-15T01:05:27;100.50;;;80.20;;
70150;SDS011;57517;43.562;19.540;2022-11-15T01:07:53;100.55;;;77.75;;
70150;SDS011;57517;43.562;19.540;2022-11-15T01:10:22;92.90;;;72.50;;
70150;SDS011;57517;43.562;19.540;2022-11-15T01:12:50;81.53;;;63.40;;
70150;SDS011;57517;43.562;19.540;2022-11-15T01:15:16;83.75;;;62.47;;
70150;SDS011;57517;43.562;19.540;2022-11-15T01:17:42;75.57;;;58.03;;
70150;SDS011;57517;43.562;19.540;2022-11-15T01:20:08;88.10;;;64.75;;
70150;SDS011;57517;43.562;19.540;2022-11-15T01:22:34;75.93;;;59.88;;
70150;SDS011;57517;43.562;19.540;2022-11-15T01:25:00;78.07;;;59.55;;
70150;SDS011;57517;43.562;19.540;2022-11-15T01:27:26;81.53;;;59.83;;
70150;SDS011;57517;43.562;19.540;2022-11-15T01:29:51;81.93;;;60.10;;
70150;SDS011;57517;43.562;19.540;2022-11-15T01:32:17;75.03;;;56.90;;
70150;SDS011;57517;43.562;19.540;2022-11-15T01:34:43;70.65;;;55.35;;
70150;SDS011;57517;43.562;19.540;2022-11-15T01:37:09;72.32;;;53.42;;
70150;SDS011;57517;43.562;19.540;2022-11-15T01:39:34;70.13;;;50.53;;
70150;SDS011;57517;43.562;19.540;2022-11-15T01:42:00;68.30;;;51.05;;
70150;SDS011;57517;43.562;19.540;2022-11-15T01:44:43;68.00;;;50.20;;
70150;SDS011;57517;43.562;19.540;2022-11-15T01:47:13;67.13;;;48.83;;
70150;SDS011;57517;43.562;19.540;2022-11-15T01:52:46;61.38;;;47.80;;
70150;SDS011;57517;43.562;19.540;2022-11-15T01:55:19;62.75;;;47.10;;
70150;SDS011;57517;43.562;19.540;2022-11-15T01:57:49;63.03;;;46.05;;
70150;SDS011;57517;43.562;19.540;2022-11-15T02:00:18;54.65;;;41.90;;
70150;SDS011;57517;43.562;19.540;2022-11-15T02:02:44;50.80;;;39.70;;
70150;SDS011;57517;43.562;19.540;2022-11-15T02:05:10;48.22;;;38.00;;
70150;SDS011;57517;43.562;19.540;2022-11-15T02:07:36;51.38;;;40.58;;
70150;SDS011;57517;43.562;19.540;2022-11-15T02:10:04;53.22;;;41.08;;
70150;SDS011;57517;43.562;19.540;2022-11-15T02:12:38;49.65;;;39.75;;
70150;SDS011;57517;43.562;19.540;2022-11-15T02:15:05;49.80;;;38.45;;
70150;SDS011;57517;43.562;19.540;2022-11-15T02:25:54;45.17;;;35.38;;
70150;SDS011;57517;43.562;19.540;2022-11-15T02:39:40;52.40;;;38.53;;
70150;SDS011;57517;43.562;19.540;2022-11-15T02:42:30;48.85;;;39.17;;
70150;SDS011;57517;43.562;19.540;2022-11-15T02:45:27;55.40;;;39.28;;
70150;SDS011;57517;43.562;19.540;2022-11-15T02:47:56;53.17;;;40.13;;
70150;SDS011;57517;43.562;19.540;2022-11-15T02:50:25;50.05;;;38.67;;
70150;SDS011;57517;43.562;19.540;2022-11-15T02:52:53;49.75;;;37.00;;
70150;SDS011;57517;43.562;19.540;2022-11-15T02:55:27;46.92;;;33.80;;
70150;SDS011;57517;43.562;19.540;2022-11-15T03:00:47;54.80;;;43.40;;
70150;SDS011;57517;43.562;19.540;2022-11-15T03:06:20;50.20;;;39.42;;
70150;SDS011;57517;43.562;19.540;2022-11-15T03:09:02;52.88;;;39.28;;
70150;SDS011;57517;43.562;19.540;2022-11-15T03:11:29;50.72;;;36.60;;
70150;SDS011;57517;43.562;19.540;2022-11-15T03:14:21;44.33;;;33.47;;
70150;SDS011;57517;43.562;19.540;2022-11-15T03:19:46;52.67;;;39.30;;
70150;SDS011;57517;43.562;19.540;2022-11-15T03:22:20;49.70;;;38.58;;
70150;SDS011;57517;43.562;19.540;2022-11-15T03:24:50;47.67;;;36.58;;
70150;SDS011;57517;43.562;19.540;2022-11-15T03:27:21;46.85;;;35.08;;
70150;SDS011;57517;43.562;19.540;2022-11-15T03:29:51;43.28;;;32.50;;
70150;SDS011;57517;43.562;19.540;2022-11-15T03:32:25;44.63;;;33.45;;
70150;SDS011;57517;43.562;19.540;2022-11-15T03:35:01;42.97;;;33.35;;
70150;SDS011;57517;43.562;19.540;2022-11-15T03:37:34;44.97;;;34.80;;
70150;SDS011;57517;43.562;19.540;2022-11-15T03:40:06;49.50;;;35.88;;
70150;SDS011;57517;43.562;19.540;2022-11-15T03:42:58;48.22;;;35.83;;
70150;SDS011;57517;43.562;19.540;2022-11-15T03:45:41;42.15;;;32.72;;
70150;SDS011;57517;43.562;19.540;2022-11-15T03:48:13;39.53;;;32.53;;
70150;SDS011;57517;43.562;19.540;2022-11-15T03:50:44;40.80;;;31.80;;
70150;SDS011;57517;43.562;19.540;2022-11-15T03:53:11;47.72;;;34.83;;
70150;SDS011;57517;43.562;19.540;2022-11-15T03:55:38;43.67;;;34.00;;
70150;SDS011;57517;43.562;19.540;2022-11-15T03:58:03;47.33;;;35.33;;
70150;SDS011;57517;43.562;19.540;2022-11-15T04:00:29;42.28;;;34.10;;
70150;SDS011;57517;43.562;19.540;2022-11-15T04:02:55;44.95;;;36.40;;
70150;SDS011;57517;43.562;19.540;2022-11-15T04:05:21;48.00;;;35.30;;
70150;SDS011;57517;43.562;19.540;2022-11-15T04:07:47;46.65;;;35.40;;
70150;SDS011;57517;43.562;19.540;2022-11-15T04:10:13;44.13;;;35.67;;
70150;SDS011;57517;43.562;19.540;2022-11-15T04:12:40;46.20;;;33.97;;
70150;SDS011;57517;43.562;19.540;2022-11-15T04:15:12;45.97;;;34.83;;
70150;SDS011;57517;43.562;19.540;2022-11-15T04:17:45;43.33;;;35.60;;
70150;SDS011;57517;43.562;19.540;2022-11-15T04:22:59;50.95;;;41.35;;
70150;SDS011;57517;43.562;19.540;2022-11-15T04:25:44;52.90;;;41.25;;
70150;SDS011;57517;43.562;19.540;2022-11-15T04:28:11;59.10;;;42.50;;
70150;SDS011;57517;43.562;19.540;2022-11-15T04:30:37;57.42;;;42.42;;
70150;SDS011;57517;43.562;19.540;2022-11-15T04:33:03;64.07;;;47.25;;
70150;SDS011;57517;43.562;19.540;2022-11-15T04:35:29;63.17;;;47.35;;
70150;SDS011;57517;43.562;19.540;2022-11-15T04:37:55;50.00;;;40.20;;
70150;SDS011;57517;43.562;19.540;2022-11-15T04:40:22;47.33;;;35.63;;
70150;SDS011;57517;43.562;19.540;2022-11-15T04:42:48;50.05;;;36.85;;
70150;SDS011;57517;43.562;19.540;2022-11-15T04:45:13;44.97;;;35.55;;
70150;SDS011;57517;43.562;19.540;2022-11-15T04:47:39;49.92;;;38.30;;
70150;SDS011;57517;43.562;19.540;2022-11-15T04:50:08;52.97;;;40.35;;
70150;SDS011;57517;43.562;19.540;2022-11-15T04:52:37;51.28;;;40.20;;
70150;SDS011;57517;43.562;19.540;2022-11-15T04:55:03;48.25;;;37.90;;
70150;SDS011;57517;43.562;19.540;2022-11-15T04:57:29;46.08;;;36.22;;
70150;SDS011;57517;43.562;19.540;2022-11-15T04:59:55;43.38;;;32.47;;
70150;SDS011;57517;43.562;19.540;2022-11-15T05:02:20;43.60;;;33.03;;
70150;SDS011;57517;43.562;19.540;2022-11-15T05:04:46;43.92;;;34.05;;
70150;SDS011;57517;43.562;19.540;2022-11-15T05:07:12;45.40;;;35.85;;
70150;SDS011;57517;43.562;19.540;2022-11-15T05:09:38;53.08;;;39.28;;
70150;SDS011;57517;43.562;19.540;2022-11-15T05:12:04;50.20;;;37.33;;
70150;SDS011;57517;43.562;19.540;2022-11-15T05:14:29;46.63;;;37.10;;
70150;SDS011;57517;43.562;19.540;2022-11-15T05:16:55;45.47;;;36.35;;
70150;SDS011;57517;43.562;19.540;2022-11-15T05:19:21;53.85;;;40.60;;
70150;SDS011;57517;43.562;19.540;2022-11-15T05:21:47;57.67;;;44.05;;
70150;SDS011;57517;43.562;19.540;2022-11-15T05:24:12;58.47;;;44.97;;
70150;SDS011;57517;43.562;19.540;2022-11-15T05:26:38;54.25;;;43.20;;
70150;SDS011;57517;43.562;19.540;2022-11-15T05:29:04;60.90;;;47.55;;
70150;SDS011;57517;43.562;19.540;2022-11-15T05:31:30;58.97;;;47.25;;
70150;SDS011;57517;43.562;19.540;2022-11-15T05:33:56;59.35;;;45.63;;
70150;SDS011;57517;43.562;19.540;2022-11-15T05:39:06;60.20;;;46.50;;
70150;SDS011;57517;43.562;19.540;2022-11-15T05:41:34;61.90;;;46.95;;
70150;SDS011;57517;43.562;19.540;2022-11-15T05:44:06;58.78;;;46.08;;
70150;SDS011;57517;43.562;19.540;2022-11-15T05:46:34;59.80;;;43.63;;
70150;SDS011;57517;43.562;19.540;2022-11-15T05:49:02;53.67;;;40.47;;
70150;SDS011;57517;43.562;19.540;2022-11-15T05:51:31;49.67;;;39.00;;
70150;SDS011;57517;43.562;19.540;2022-11-15T05:53:57;50.17;;;38.58;;
70150;SDS011;57517;43.562;19.540;2022-11-15T05:56:24;48.28;;;37.95;;
70150;SDS011;57517;43.562;19.540;2022-11-15T05:58:51;48.00;;;36.10;;
70150;SDS011;57517;43.562;19.540;2022-11-15T06:01:19;47.83;;;37.00;;
70150;SDS011;57517;43.562;19.540;2022-11-15T06:03:44;52.38;;;36.33;;
70150;SDS011;57517;43.562;19.540;2022-11-15T06:06:10;49.85;;;39.20;;
70150;SDS011;57517;43.562;19.540;2022-11-15T06:08:36;57.17;;;43.70;;
70150;SDS011;57517;43.562;19.540;2022-11-15T06:11:05;56.15;;;40.75;;
70150;SDS011;57517;43.562;19.540;2022-11-15T06:13:32;55.55;;;43.53;;
70150;SDS011;57517;43.562;19.540;2022-11-15T06:15:58;54.72;;;43.45;;
70150;SDS011;57517;43.562;19.540;2022-11-15T06:18:24;54.78;;;41.75;;
70150;SDS011;57517;43.562;19.540;2022-11-15T06:20:50;51.10;;;38.20;;
70150;SDS011;57517;43.562;19.540;2022-11-15T06:23:16;53.40;;;39.75;;
70150;SDS011;57517;43.562;19.540;2022-11-15T06:25:42;56.42;;;43.40;;
70150;SDS011;57517;43.562;19.540;2022-11-15T06:28:08;50.80;;;37.70;;
70150;SDS011;57517;43.562;19.540;2022-11-15T06:30:33;49.03;;;35.75;;
70150;SDS011;57517;43.562;19.540;2022-11-15T06:33:00;47.22;;;34.33;;
70150;SDS011;57517;43.562;19.540;2022-11-15T06:35:27;55.58;;;38.85;;
70150;SDS011;57517;43.562;19.540;2022-11-15T06:37:53;54.10;;;40.03;;
70150;SDS011;57517;43.562;19.540;2022-11-15T06:40:19;57.85;;;41.20;;
70150;SDS011;57517;43.562;19.540;2022-11-15T06:42:45;54.40;;;40.30;;
70150;SDS011;57517;43.562;19.540;2022-11-15T06:45:11;45.80;;;33.67;;
70150;SDS011;57517;43.562;19.540;2022-11-15T06:47:43;49.22;;;34.85;;
70150;SDS011;57517;43.562;19.540;2022-11-15T06:50:13;49.22;;;38.78;;
70150;SDS011;57517;43.562;19.540;2022-11-15T06:52:39;54.78;;;40.63;;
70150;SDS011;57517;43.562;19.540;2022-11-15T06:55:05;71.25;;;50.92;;
70150;SDS011;57517;43.562;19.540;2022-11-15T06:57:31;77.32;;;56.33;;
70150;SDS011;57517;43.562;19.540;2022-11-15T06:59:57;73.60;;;57.95;;
70150;SDS011;57517;43.562;19.540;2022-11-15T07:02:23;87.05;;;68.00;;
70150;SDS011;57517;43.562;19.540;2022-11-15T07:04:48;98.05;;;74.28;;
70150;SDS011;57517;43.562;19.540;2022-11-15T07:07:14;112.47;;;85.43;;
70150;SDS011;57517;43.562;19.540;2022-11-15T07:09:40;95.88;;;69.50;;
70150;SDS011;57517;43.562;19.540;2022-11-15T07:12:06;102.03;;;73.63;;
70150;SDS011;57517;43.562;19.540;2022-11-15T07:14:31;240.70;;;179.75;;
70150;SDS011;57517;43.562;19.540;2022-11-15T07:16:57;323.25;;;258.95;;
70150;SDS011;57517;43.562;19.540;2022-11-15T07:19:23;203.02;;;159.23;;
70150;SDS011;57517;43.562;19.540;2022-11-15T07:21:49;135.95;;;105.05;;
70150;SDS011;57517;43.562;19.540;2022-11-15T07:24:14;97.18;;;77.05;;
70150;SDS011;57517;43.562;19.540;2022-11-15T07:26:40;90.22;;;67.75;;
70150;SDS011;57517;43.562;19.540;2022-11-15T07:29:06;88.40;;;70.20;;
70150;SDS011;57517;43.562;19.540;2022-11-15T07:31:32;93.70;;;68.50;;
70150;SDS011;57517;43.562;19.540;2022-11-15T07:33:57;90.95;;;71.68;;
70150;SDS011;57517;43.562;19.540;2022-11-15T07:36:23;89.82;;;68.68;;
70150;SDS011;57517;43.562;19.540;2022-11-15T07:38:49;86.68;;;62.58;;
70150;SDS011;57517;43.562;19.540;2022-11-15T07:41:15;82.22;;;61.28;;
70150;SDS011;57517;43.562;19.540;2022-11-15T07:43:40;86.50;;;64.03;;
70150;SDS011;57517;43.562;19.540;2022-11-15T07:46:07;90.45;;;63.42;;
70150;SDS011;57517;43.562;19.540;2022-11-15T07:48:34;83.43;;;61.47;;
70150;SDS011;57517;43.562;19.540;2022-11-15T07:51:01;81.28;;;62.58;;
70150;SDS011;57517;43.562;19.540;2022-11-15T07:53:27;78.78;;;59.85;;
70150;SDS011;57517;43.562;19.540;2022-11-15T07:55:53;81.72;;;58.50;;
70150;SDS011;57517;43.562;19.540;2022-11-15T07:58:19;76.78;;;55.28;;
70150;SDS011;57517;43.562;19.540;2022-11-15T08:00:45;76.95;;;55.33;;
70150;SDS011;57517;43.562;19.540;2022-11-15T08:03:11;82.13;;;58.35;;
70150;SDS011;57517;43.562;19.540;2022-11-15T08:05:39;97.65;;;70.85;;
70150;SDS011;57517;43.562;19.540;2022-11-15T08:08:06;90.95;;;67.80;;
70150;SDS011;57517;43.562;19.540;2022-11-15T08:10:33;88.20;;;66.47;;
70150;SDS011;57517;43.562;19.540;2022-11-15T08:13:02;97.32;;;70.78;;
70150;SDS011;57517;43.562;19.540;2022-11-15T08:15:33;115.30;;;87.88;;
70150;SDS011;57517;43.562;19.540;2022-11-15T08:18:01;107.20;;;84.18;;
70150;SDS011;57517;43.562;19.540;2022-11-15T08:20:30;113.30;;;84.95;;
70150;SDS011;57517;43.562;19.540;2022-11-15T08:22:56;116.38;;;87.78;;
70150;SDS011;57517;43.562;19.540;2022-11-15T08:25:23;130.43;;;98.38;;
70150;SDS011;57517;43.562;19.540;2022-11-15T08:27:53;107.53;;;83.47;;
70150;SDS011;57517;43.562;19.540;2022-11-15T08:30:20;127.50;;;97.65;;
70150;SDS011;57517;43.562;19.540;2022-11-15T08:32:46;125.22;;;99.10;;
70150;SDS011;57517;43.562;19.540;2022-11-15T08:35:13;105.10;;;79.05;;
70150;SDS011;57517;43.562;19.540;2022-11-15T08:37:39;86.50;;;70.10;;
70150;SDS011;57517;43.562;19.540;2022-11-15T08:40:05;83.75;;;61.67;;
70150;SDS011;57517;43.562;19.540;2022-11-15T08:42:31;81.82;;;66.38;;
70150;SDS011;57517;43.562;19.540;2022-11-15T08:44:57;59.85;;;43.60;;
70150;SDS011;57517;43.562;19.540;2022-11-15T08:47:23;55.22;;;39.33;;
70150;SDS011;57517;43.562;19.540;2022-11-15T08:49:49;47.78;;;36.78;;
70150;SDS011;57517;43.562;19.540;2022-11-15T08:52:15;46.58;;;35.45;;
70150;SDS011;57517;43.562;19.540;2022-11-15T08:54:41;43.10;;;31.55;;
70150;SDS011;57517;43.562;19.540;2022-11-15T08:57:06;47.42;;;35.53;;
70150;SDS011;57517;43.562;19.540;2022-11-15T08:59:34;39.03;;;29.73;;
70150;SDS011;57517;43.562;19.540;2022-11-15T09:02:00;50.17;;;38.78;;
70150;SDS011;57517;43.562;19.540;2022-11-15T09:04:26;52.75;;;42.05;;
70150;SDS011;57517;43.562;19.540;2022-11-15T09:06:52;59.55;;;47.85;;
70150;SDS011;57517;43.562;19.540;2022-11-15T09:09:18;70.13;;;53.85;;
70150;SDS011;57517;43.562;19.540;2022-11-15T09:11:43;58.95;;;45.80;;
70150;SDS011;57517;43.562;19.540;2022-11-15T09:14:12;71.63;;;53.00;;
70150;SDS011;57517;43.562;19.540;2022-11-15T09:16:38;52.13;;;40.38;;
70150;SDS011;57517;43.562;19.540;2022-11-15T09:19:04;50.20;;;42.92;;
70150;SDS011;57517;43.562;19.540;2022-11-15T09:21:30;39.25;;;31.33;;
70150;SDS011;57517;43.562;19.540;2022-11-15T09:23:56;31.83;;;24.88;;
70150;SDS011;57517;43.562;19.540;2022-11-15T09:26:22;30.08;;;24.52;;
70150;SDS011;57517;43.562;19.540;2022-11-15T09:28:47;34.25;;;26.88;;
70150;SDS011;57517;43.562;19.540;2022-11-15T09:31:13;31.77;;;25.95;;
70150;SDS011;57517;43.562;19.540;2022-11-15T09:33:39;30.75;;;25.38;;
70150;SDS011;57517;43.562;19.540;2022-11-15T09:36:06;34.72;;;28.45;;
70150;SDS011;57517;43.562;19.540;2022-11-15T09:38:33;30.60;;;26.52;;
70150;SDS011;57517;43.562;19.540;2022-11-15T09:49:58;41.25;;;36.78;;
70150;SDS011;57517;43.562;19.540;2022-11-15T09:52:27;42.08;;;35.10;;
70150;SDS011;57517;43.562;19.540;2022-11-15T09:54:53;39.33;;;33.22;;
70150;SDS011;57517;43.562;19.540;2022-11-15T09:57:33;39.08;;;34.05;;
70150;SDS011;57517;43.562;19.540;2022-11-15T10:00:11;37.00;;;31.60;;
70150;SDS011;57517;43.562;19.540;2022-11-15T10:05:38;34.97;;;30.60;;
70150;SDS011;57517;43.562;19.540;2022-11-15T10:10:43;37.63;;;29.13;;
70150;SDS011;57517;43.562;19.540;2022-11-15T10:13:25;29.25;;;23.98;;
70150;SDS011;57517;43.562;19.540;2022-11-15T10:15:54;34.03;;;27.30;;
70150;SDS011;57517;43.562;19.540;2022-11-15T10:18:58;40.50;;;34.25;;
70150;SDS011;57517;43.562;19.540;2022-11-15T10:21:54;33.28;;;28.85;;
70150;SDS011;57517;43.562;19.540;2022-11-15T10:24:35;37.60;;;32.67;;
70150;SDS011;57517;43.562;19.540;2022-11-15T10:27:18;30.23;;;26.08;;
70150;SDS011;57517;43.562;19.540;2022-11-15T10:29:45;25.17;;;22.25;;
70150;SDS011;57517;43.562;19.540;2022-11-15T10:32:14;30.02;;;25.23;;
70150;SDS011;57517;43.562;19.540;2022-11-15T10:34:42;41.28;;;35.40;;
70150;SDS011;57517;43.562;19.540;2022-11-15T10:37:08;33.05;;;29.48;;
70150;SDS011;57517;43.562;19.540;2022-11-15T10:39:34;35.85;;;30.83;;
70150;SDS011;57517;43.562;19.540;2022-11-15T10:45:10;34.03;;;28.05;;
70150;SDS011;57517;43.562;19.540;2022-11-15T10:48:18;35.38;;;29.33;;
70150;SDS011;57517;43.562;19.540;2022-11-15T10:50:43;65.97;;;54.80;;
70150;SDS011;57517;43.562;19.540;2022-11-15T10:53:31;56.85;;;49.20;;
70150;SDS011;57517;43.562;19.540;2022-11-15T10:56:04;45.00;;;37.65;;
70150;SDS011;57517;43.562;19.540;2022-11-15T10:58:43;41.83;;;34.63;;
70150;SDS011;57517;43.562;19.540;2022-11-15T11:01:16;39.65;;;33.53;;
70150;SDS011;57517;43.562;19.540;2022-11-15T11:06:54;30.65;;;26.77;;
70150;SDS011;57517;43.562;19.540;2022-11-15T11:09:23;38.50;;;33.72;;
70150;SDS011;57517;43.562;19.540;2022-11-15T11:11:54;44.67;;;39.72;;
70150;SDS011;57517;43.562;19.540;2022-11-15T11:16:52;35.28;;;28.02;;
70150;SDS011;57517;43.562;19.540;2022-11-15T11:19:31;33.53;;;27.88;;
70150;SDS011;57517;43.562;19.540;2022-11-15T11:22:26;31.58;;;27.13;;
70150;SDS011;57517;43.562;19.540;2022-11-15T11:28:21;36.97;;;29.73;;
70150;SDS011;57517;43.562;19.540;2022-11-15T11:41:55;40.28;;;30.67;;
70150;SDS011;57517;43.562;19.540;2022-11-15T11:44:37;37.92;;;29.50;;
70150;SDS011;57517;43.562;19.540;2022-11-15T11:47:39;35.90;;;27.63;;
70150;SDS011;57517;43.562;19.540;2022-11-15T11:50:13;32.13;;;26.80;;
70150;SDS011;57517;43.562;19.540;2022-11-15T11:53:01;37.53;;;28.70;;
70150;SDS011;57517;43.562;19.540;2022-11-15T11:55:50;35.10;;;28.95;;
70150;SDS011;57517;43.562;19.540;2022-11-15T12:03:51;38.55;;;29.20;;
70150;SDS011;57517;43.562;19.540;2022-11-15T12:06:35;53.58;;;44.28;;
70150;SDS011;57517;43.562;19.540;2022-11-15T12:14:46;55.92;;;45.05;;
70150;SDS011;57517;43.562;19.540;2022-11-15T12:17:19;45.33;;;34.50;;
70150;SDS011;57517;43.562;19.540;2022-11-15T12:19:48;42.28;;;35.30;;
70150;SDS011;57517;43.562;19.540;2022-11-15T12:25:04;33.70;;;28.20;;
70150;SDS011;57517;43.562;19.540;2022-11-15T12:27:43;37.47;;;30.73;;
70150;SDS011;57517;43.562;19.540;2022-11-15T12:30:13;33.47;;;27.15;;
70150;SDS011;57517;43.562;19.540;2022-11-15T12:35:58;35.33;;;30.33;;
70150;SDS011;57517;43.562;19.540;2022-11-15T12:38:59;30.00;;;23.98;;
70150;SDS011;57517;43.562;19.540;2022-11-15T12:41:34;28.13;;;22.83;;
70150;SDS011;57517;43.562;19.540;2022-11-15T12:44:02;29.20;;;22.77;;
70150;SDS011;57517;43.562;19.540;2022-11-15T12:54:58;34.75;;;26.10;;
70150;SDS011;57517;43.562;19.540;2022-11-15T12:59:51;33.17;;;23.23;;
70150;SDS011;57517;43.562;19.540;2022-11-15T13:12:55;41.58;;;33.28;;
70150;SDS011;57517;43.562;19.540;2022-11-15T13:15:55;34.17;;;27.40;;
70150;SDS011;57517;43.562;19.540;2022-11-15T13:20:52;34.50;;;28.48;;
70150;SDS011;57517;43.562;19.540;2022-11-15T13:23:18;42.78;;;32.30;;
70150;SDS011;57517;43.562;19.540;2022-11-15T13:33:22;54.90;;;43.08;;
70150;SDS011;57517;43.562;19.540;2022-11-15T13:36:01;88.00;;;45.53;;
70150;SDS011;57517;43.562;19.540;2022-11-15T13:38:55;57.80;;;44.63;;
70150;SDS011;57517;43.562;19.540;2022-11-15T13:41:30;47.85;;;41.55;;
70150;SDS011;57517;43.562;19.540;2022-11-15T13:44:01;56.25;;;42.92;;
70150;SDS011;57517;43.562;19.540;2022-11-15T13:46:29;79.60;;;62.10;;
70150;SDS011;57517;43.562;19.540;2022-11-15T13:48:59;102.18;;;84.15;;
70150;SDS011;57517;43.562;19.540;2022-11-15T13:54:17;82.70;;;64.88;;
70150;SDS011;57517;43.562;19.540;2022-11-15T13:56:49;70.03;;;56.42;;
70150;SDS011;57517;43.562;19.540;2022-11-15T13:59:26;72.80;;;58.97;;
70150;SDS011;57517;43.562;19.540;2022-11-15T14:01:58;69.20;;;55.95;;
70150;SDS011;57517;43.562;19.540;2022-11-15T14:04:28;66.18;;;53.63;;
70150;SDS011;57517;43.562;19.540;2022-11-15T14:06:59;68.55;;;55.28;;
70150;SDS011;57517;43.562;19.540;2022-11-15T14:09:33;68.68;;;54.78;;
70150;SDS011;57517;43.562;19.540;2022-11-15T14:12:02;60.10;;;48.17;;
70150;SDS011;57517;43.562;19.540;2022-11-15T14:14:46;57.25;;;46.22;;
70150;SDS011;57517;43.562;19.540;2022-11-15T14:17:20;53.58;;;41.67;;
70150;SDS011;57517;43.562;19.540;2022-11-15T14:19:55;44.45;;;35.60;;
70150;SDS011;57517;43.562;19.540;2022-11-15T14:22:22;51.75;;;39.50;;
70150;SDS011;57517;43.562;19.540;2022-11-15T14:27:38;52.90;;;40.97;;
70150;SDS011;57517;43.562;19.540;2022-11-15T14:30:04;44.95;;;37.78;;
70150;SDS011;57517;43.562;19.540;2022-11-15T14:33:11;47.17;;;34.75;;
70150;SDS011;57517;43.562;19.540;2022-11-15T14:35:23;43.63;;;34.60;;
70150;SDS011;57517;43.562;19.540;2022-11-15T14:37:49;60.25;;;48.75;;
70150;SDS011;57517;43.562;19.540;2022-11-15T14:40:16;64.15;;;48.78;;
70150;SDS011;57517;43.562;19.540;2022-11-15T14:42:44;65.47;;;50.55;;
70150;SDS011;57517;43.562;19.540;2022-11-15T14:45:12;69.25;;;53.00;;
70150;SDS011;57517;43.562;19.540;2022-11-15T14:47:45;61.22;;;50.03;;
70150;SDS011;57517;43.562;19.540;2022-11-15T14:50:12;65.10;;;49.45;;
70150;SDS011;57517;43.562;19.540;2022-11-15T14:52:39;66.25;;;53.70;;
70150;SDS011;57517;43.562;19.540;2022-11-15T14:55:11;70.20;;;54.33;;
70150;SDS011;57517;43.562;19.540;2022-11-15T14:57:42;80.55;;;66.03;;
70150;SDS011;57517;43.562;19.540;2022-11-15T15:00:08;85.05;;;65.30;;
70150;SDS011;57517;43.562;19.540;2022-11-15T15:02:35;99.63;;;79.72;;
70150;SDS011;57517;43.562;19.540;2022-11-15T15:05:01;129.48;;;103.85;;
70150;SDS011;57517;43.562;19.540;2022-11-15T15:07:37;128.52;;;108.13;;
70150;SDS011;57517;43.562;19.540;2022-11-15T15:10:03;113.22;;;93.97;;
70150;SDS011;57517;43.562;19.540;2022-11-15T15:12:29;101.65;;;85.15;;
70150;SDS011;57517;43.562;19.540;2022-11-15T15:14:55;112.43;;;93.13;;
70150;SDS011;57517;43.562;19.540;2022-11-15T15:17:21;116.38;;;95.00;;
70150;SDS011;57517;43.562;19.540;2022-11-15T15:19:47;94.45;;;75.25;;
70150;SDS011;57517;43.562;19.540;2022-11-15T15:22:17;86.57;;;70.60;;
70150;SDS011;57517;43.562;19.540;2022-11-15T15:24:46;87.10;;;71.95;;
70150;SDS011;57517;43.562;19.540;2022-11-15T15:27:13;83.65;;;64.53;;
70150;SDS011;57517;43.562;19.540;2022-11-15T15:29:39;98.90;;;77.90;;
70150;SDS011;57517;43.562;19.540;2022-11-15T15:32:05;96.25;;;79.70;;
70150;SDS011;57517;43.562;19.540;2022-11-15T15:34:31;106.45;;;91.57;;
70150;SDS011;57517;43.562;19.540;2022-11-15T15:37:07;108.55;;;89.80;;
70150;SDS011;57517;43.562;19.540;2022-11-15T15:39:34;92.93;;;73.63;;
70150;SDS011;57517;43.562;19.540;2022-11-15T15:42:00;83.78;;;62.80;;
70150;SDS011;57517;43.562;19.540;2022-11-15T15:44:25;81.78;;;62.42;;
70150;SDS011;57517;43.562;19.540;2022-11-15T15:46:51;73.60;;;60.53;;
70150;SDS011;57517;43.562;19.540;2022-11-15T15:49:17;80.82;;;64.90;;
70150;SDS011;57517;43.562;19.540;2022-11-15T15:51:43;83.55;;;65.68;;
70150;SDS011;57517;43.562;19.540;2022-11-15T15:54:09;78.25;;;65.53;;
70150;SDS011;57517;43.562;19.540;2022-11-15T15:56:35;83.03;;;69.85;;
70150;SDS011;57517;43.562;19.540;2022-11-15T15:59:01;74.40;;;57.97;;
70150;SDS011;57517;43.562;19.540;2022-11-15T16:01:26;63.20;;;54.25;;
70150;SDS011;57517;43.562;19.540;2022-11-15T16:03:52;79.82;;;63.10;;
70150;SDS011;57517;43.562;19.540;2022-11-15T16:06:32;70.60;;;59.20;;
70150;SDS011;57517;43.562;19.540;2022-11-15T16:09:01;81.50;;;63.55;;
70150;SDS011;57517;43.562;19.540;2022-11-15T16:11:28;92.25;;;69.85;;
70150;SDS011;57517;43.562;19.540;2022-11-15T16:13:53;68.95;;;56.75;;
70150;SDS011;57517;43.562;19.540;2022-11-15T16:16:19;74.57;;;58.38;;
70150;SDS011;57517;43.562;19.540;2022-11-15T16:18:47;75.47;;;61.60;;
70150;SDS011;57517;43.562;19.540;2022-11-15T16:21:13;79.00;;;61.45;;
70150;SDS011;57517;43.562;19.540;2022-11-15T16:23:38;79.60;;;62.92;;
70150;SDS011;57517;43.562;19.540;2022-11-15T16:26:10;78.55;;;59.00;;
70150;SDS011;57517;43.562;19.540;2022-11-15T16:28:47;67.78;;;57.40;;
70150;SDS011;57517;43.562;19.540;2022-11-15T16:31:13;72.38;;;60.00;;